createdAt,value
2017-10-03T00:00:37.775Z,34.10
2017-10-03T00:01:58.324Z,32.10
2017-10-03T00:03:18.809Z,33.00
2017-10-03T00:04:39.102Z,37.70
2017-10-03T00:06:00.019Z,31.50
2017-10-03T00:07:20.368Z,34.20
2017-10-03T00:08:40.587Z,28.30
2017-10-03T00:10:00.923Z,31.30
2017-10-03T00:11:20.944Z,31.50
2017-10-03T00:12:41.191Z,37.10
2017-10-03T00:14:01.375Z,29.80
2017-10-03T00:15:22.284Z,39.10
2017-10-03T00:16:42.561Z,28.00
2017-10-03T00:18:03.493Z,48.80
2017-10-03T00:19:24.223Z,38.20
2017-10-03T00:20:44.176Z,33.40
2017-10-03T00:22:04.216Z,31.80
2017-10-03T00:23:24.802Z,32.30
2017-10-03T00:24:45.379Z,40.20
2017-10-03T00:26:05.364Z,35.00
2017-10-03T00:27:25.647Z,34.20
2017-10-03T00:28:45.603Z,40.40
2017-10-03T00:30:05.649Z,48.80
2017-10-03T00:31:25.973Z,38.00
2017-10-03T00:32:45.996Z,36.20
2017-10-03T00:34:06.500Z,42.70
2017-10-03T00:35:26.542Z,39.60
2017-10-03T00:36:47.305Z,44.40
2017-10-03T00:38:07.358Z,46.00
2017-10-03T00:39:27.432Z,48.70
2017-10-03T00:40:47.621Z,38.30
2017-10-03T00:42:07.596Z,56.00
2017-10-03T00:43:29.678Z,41.40
2017-10-03T00:44:50.216Z,53.70
2017-10-03T00:46:10.880Z,60.00
2017-10-03T00:47:31.168Z,61.60
2017-10-03T00:48:51.308Z,67.90
2017-10-03T00:50:11.885Z,46.50
2017-10-03T00:51:32.215Z,50.40
2017-10-03T00:52:52.507Z,51.00
2017-10-03T00:54:12.664Z,47.50
2017-10-03T00:55:32.718Z,54.20
2017-10-03T00:56:52.909Z,48.40
2017-10-03T00:58:13.088Z,49.10
2017-10-03T00:59:33.086Z,41.50
2017-10-03T01:00:53.615Z,44.40
2017-10-03T01:02:13.721Z,59.70
2017-10-03T01:03:33.971Z,53.00
2017-10-03T01:04:53.873Z,55.90
2017-10-03T01:06:14.108Z,56.90
2017-10-03T01:07:34.176Z,46.20
2017-10-03T01:08:54.017Z,53.40
2017-10-03T01:10:14.191Z,50.70
2017-10-03T01:11:34.713Z,50.20
2017-10-03T01:12:54.736Z,46.10
2017-10-03T01:14:14.923Z,46.30
2017-10-03T01:15:35.049Z,51.40
2017-10-03T01:16:55.700Z,52.10
2017-10-03T01:18:16.276Z,45.20
2017-10-03T01:19:36.406Z,47.20
2017-10-03T01:20:56.471Z,55.50
2017-10-03T01:22:17.009Z,47.50
2017-10-03T01:23:37.258Z,47.00
2017-10-03T01:24:57.993Z,47.50
2017-10-03T01:26:18.030Z,46.90
2017-10-03T01:27:38.019Z,40.60
2017-10-03T01:28:59.081Z,41.90
2017-10-03T01:30:19.348Z,38.30
2017-10-03T01:31:39.483Z,55.80
2017-10-03T01:32:59.785Z,54.10
2017-10-03T01:34:19.771Z,44.00
2017-10-03T01:35:39.950Z,68.10
2017-10-03T01:36:59.964Z,48.80
2017-10-03T01:38:20.097Z,53.80
2017-10-03T01:39:40.273Z,48.90
2017-10-03T01:41:00.262Z,53.70
2017-10-03T01:42:20.373Z,52.20
2017-10-03T01:43:40.747Z,55.50
2017-10-03T01:45:01.244Z,55.60
2017-10-03T01:46:21.117Z,53.60
2017-10-03T01:47:41.073Z,54.00
2017-10-03T01:49:01.221Z,63.90
2017-10-03T01:50:21.517Z,63.40
2017-10-03T01:51:41.383Z,57.20
2017-10-03T01:53:01.613Z,62.50
2017-10-03T01:54:22.227Z,50.10
2017-10-03T01:55:42.400Z,54.50
2017-10-03T01:57:02.392Z,62.50
2017-10-03T01:58:22.597Z,73.50
2017-10-03T01:59:43.056Z,64.50
2017-10-03T02:01:03.481Z,64.30
2017-10-03T02:02:23.570Z,64.90
2017-10-03T02:03:43.761Z,56.10
2017-10-03T02:05:04.913Z,71.80
2017-10-03T02:06:25.237Z,67.00
2017-10-03T02:07:45.983Z,73.10
2017-10-03T02:09:06.161Z,70.80
2017-10-03T02:10:26.340Z,62.30
2017-10-03T02:11:46.969Z,69.60
2017-10-03T02:13:07.178Z,83.20
2017-10-03T02:14:27.297Z,72.80
2017-10-03T02:15:47.569Z,68.30
2017-10-03T02:17:07.645Z,64.90
2017-10-03T02:18:28.506Z,62.70
2017-10-03T02:19:48.600Z,66.60
2017-10-03T02:21:08.813Z,69.80
2017-10-03T02:22:29.131Z,82.50
2017-10-03T02:23:49.067Z,73.50
2017-10-03T02:25:09.248Z,71.60
2017-10-03T02:26:29.524Z,67.90
2017-10-03T02:27:49.787Z,68.00
2017-10-03T02:29:09.882Z,61.70
2017-10-03T02:30:30.148Z,77.90
2017-10-03T02:31:50.389Z,83.70
2017-10-03T02:33:10.479Z,75.80
2017-10-03T02:34:30.691Z,71.50
2017-10-03T02:35:50.920Z,72.10
2017-10-03T02:37:11.526Z,77.50
2017-10-03T02:38:31.645Z,83.90
2017-10-03T02:39:52.516Z,70.60
2017-10-03T02:41:12.674Z,74.00
2017-10-03T02:42:33.095Z,79.30
2017-10-03T02:43:53.245Z,71.10
2017-10-03T02:45:13.218Z,58.70
2017-10-03T02:46:33.948Z,63.80
2017-10-03T02:47:54.049Z,63.70
2017-10-03T02:49:14.025Z,64.50
2017-10-03T02:50:34.377Z,61.80
2017-10-03T02:51:54.547Z,69.80
2017-10-03T02:53:14.542Z,65.80
2017-10-03T02:54:34.665Z,60.60
2017-10-03T02:55:54.723Z,66.10
2017-10-03T02:57:15.649Z,63.30
2017-10-03T02:58:36.333Z,63.90
2017-10-03T02:59:56.374Z,53.30
2017-10-03T03:01:16.609Z,54.70
2017-10-03T03:02:36.725Z,69.30
2017-10-03T03:03:57.732Z,59.20
2017-10-03T03:05:17.773Z,57.20
2017-10-03T03:06:37.921Z,51.90
2017-10-03T03:07:57.945Z,51.90
2017-10-03T03:09:18.260Z,56.80
2017-10-03T03:10:39.399Z,53.70
2017-10-03T03:11:59.307Z,53.80
2017-10-03T03:13:19.575Z,51.60
2017-10-03T03:14:39.653Z,60.00
2017-10-03T03:15:59.766Z,47.80
2017-10-03T03:17:20.144Z,50.20
2017-10-03T03:18:40.836Z,44.20
2017-10-03T03:20:01.057Z,40.10
2017-10-03T03:21:21.891Z,47.50
2017-10-03T03:22:42.481Z,42.60
2017-10-03T03:24:03.096Z,50.40
2017-10-03T03:25:23.459Z,46.80
2017-10-03T03:26:43.525Z,56.90
2017-10-03T03:28:03.605Z,46.10
2017-10-03T03:29:23.859Z,52.90
2017-10-03T03:30:43.898Z,43.60
2017-10-03T03:32:04.023Z,55.40
2017-10-03T03:33:24.191Z,46.50
2017-10-03T03:34:44.331Z,47.60
2017-10-03T03:36:04.839Z,55.00
2017-10-03T03:37:25.099Z,49.50
2017-10-03T03:38:45.975Z,50.30
2017-10-03T03:40:06.091Z,53.80
2017-10-03T03:41:26.578Z,59.80
2017-10-03T03:42:46.775Z,55.40
2017-10-03T03:44:06.883Z,53.70
2017-10-03T03:45:26.888Z,62.00
2017-10-03T03:46:47.055Z,73.70
2017-10-03T03:48:06.884Z,60.00
2017-10-03T03:49:27.041Z,58.10
2017-10-03T03:50:46.918Z,63.00
2017-10-03T03:52:07.350Z,59.20
2017-10-03T03:53:27.454Z,73.30
2017-10-03T03:54:47.717Z,58.80
2017-10-03T03:56:07.591Z,64.60
2017-10-03T03:57:27.604Z,50.90
2017-10-03T03:58:47.806Z,68.50
2017-10-03T04:00:07.926Z,70.10
2017-10-03T04:01:28.305Z,72.80
2017-10-03T04:02:48.530Z,73.70
2017-10-03T04:04:08.491Z,65.10
2017-10-03T04:05:28.669Z,71.10
2017-10-03T04:06:48.862Z,75.50
2017-10-03T04:08:09.033Z,66.10
2017-10-03T04:09:29.222Z,67.40
2017-10-03T04:10:49.089Z,68.90
2017-10-03T04:12:08.978Z,71.60
2017-10-03T04:13:29.555Z,68.10
2017-10-03T04:14:49.604Z,62.00
2017-10-03T04:16:10.252Z,79.30
2017-10-03T04:17:30.588Z,78.30
2017-10-03T04:18:50.503Z,59.80
2017-10-03T04:20:10.514Z,63.90
2017-10-03T04:21:30.502Z,83.80
2017-10-03T04:22:50.437Z,76.00
2017-10-03T04:24:10.713Z,76.30
2017-10-03T04:25:30.956Z,63.50
2017-10-03T04:26:51.764Z,74.10
2017-10-03T04:28:11.892Z,64.70
2017-10-03T04:29:32.415Z,63.70
2017-10-03T04:30:52.822Z,64.80
2017-10-03T04:32:12.801Z,63.00
2017-10-03T04:33:32.725Z,63.80
2017-10-03T04:34:52.925Z,57.00
2017-10-03T04:36:12.833Z,59.50
2017-10-03T04:37:33.106Z,54.90
2017-10-03T04:38:53.280Z,57.50
2017-10-03T04:40:13.776Z,56.10
2017-10-03T04:41:33.890Z,53.60
2017-10-03T04:42:53.999Z,53.00
2017-10-03T04:44:14.298Z,48.30
2017-10-03T04:45:34.462Z,52.60
2017-10-03T04:46:54.620Z,47.10
2017-10-03T04:48:15.651Z,41.60
2017-10-03T04:49:35.774Z,53.20
2017-10-03T04:50:56.150Z,45.90
2017-10-03T04:52:16.342Z,50.20
2017-10-03T04:53:36.538Z,42.10
2017-10-03T04:54:56.569Z,45.40
2017-10-03T04:56:17.062Z,45.50
2017-10-03T04:57:37.203Z,45.20
2017-10-03T04:58:57.317Z,44.30
2017-10-03T05:00:17.587Z,35.50
2017-10-03T05:01:37.712Z,35.80
2017-10-03T05:02:57.790Z,29.90
2017-10-03T05:04:17.949Z,33.30
2017-10-03T05:05:37.972Z,42.30
2017-10-03T05:06:58.385Z,24.00
2017-10-03T05:08:18.332Z,31.20
2017-10-03T05:09:39.165Z,34.40
2017-10-03T05:10:59.294Z,33.40
2017-10-03T05:12:19.904Z,30.10
2017-10-03T05:13:40.102Z,34.80
2017-10-03T05:15:00.161Z,38.30
2017-10-03T05:16:20.300Z,42.20
2017-10-03T05:17:40.576Z,30.90
2017-10-03T05:19:00.535Z,31.40
2017-10-03T05:20:20.927Z,31.80
2017-10-03T05:21:41.084Z,38.80
2017-10-03T05:23:01.184Z,33.20
2017-10-03T05:24:23.192Z,31.30
2017-10-03T05:25:43.103Z,29.90
2017-10-03T05:27:03.235Z,29.70
2017-10-03T05:28:23.393Z,37.20
2017-10-03T05:29:43.445Z,32.70
2017-10-03T05:31:03.686Z,28.30
2017-10-03T05:32:23.838Z,37.20
2017-10-03T05:33:45.032Z,31.90
2017-10-03T05:35:05.222Z,36.80
2017-10-03T05:36:25.303Z,27.40
2017-10-03T05:37:45.167Z,33.90
2017-10-03T05:39:06.454Z,39.60
2017-10-03T05:40:26.653Z,38.90
2017-10-03T05:41:46.885Z,30.40
2017-10-03T05:43:07.142Z,28.40
2017-10-03T05:44:27.473Z,29.20
2017-10-03T05:45:47.688Z,40.90
2017-10-03T05:47:07.989Z,33.00
2017-10-03T05:48:28.275Z,33.40
2017-10-03T05:49:48.900Z,30.80
2017-10-03T05:51:09.324Z,33.10
2017-10-03T05:52:29.527Z,28.10
2017-10-03T05:53:49.652Z,34.50
2017-10-03T05:55:09.948Z,33.00
2017-10-03T05:56:30.365Z,36.70
2017-10-03T05:57:50.998Z,43.00
2017-10-03T05:59:11.260Z,28.90
2017-10-03T06:00:32.302Z,32.40
2017-10-03T06:01:53.325Z,33.90
2017-10-03T06:03:13.345Z,44.00
2017-10-03T06:04:33.519Z,33.00
2017-10-03T06:05:53.804Z,39.20
2017-10-03T06:07:14.050Z,37.30
2017-10-03T06:08:34.284Z,39.20
2017-10-03T06:09:54.400Z,40.90
2017-10-03T06:11:14.977Z,40.50
2017-10-03T06:12:35.084Z,43.30
2017-10-03T06:13:55.299Z,39.30
2017-10-03T06:15:15.546Z,27.80
2017-10-03T06:16:35.862Z,31.30
2017-10-03T06:17:56.333Z,39.20
2017-10-03T06:19:16.702Z,32.90
2017-10-03T06:20:37.013Z,29.30
2017-10-03T06:21:57.225Z,23.00
2017-10-03T06:23:17.530Z,28.30
2017-10-03T06:24:37.636Z,29.90
2017-10-03T06:25:57.776Z,27.90
2017-10-03T06:27:18.525Z,21.20
2017-10-03T06:28:38.887Z,35.70
2017-10-03T06:29:59.650Z,30.50
2017-10-03T06:31:21.219Z,29.80
2017-10-03T06:32:41.616Z,27.60
2017-10-03T06:34:02.950Z,26.10
2017-10-03T06:35:23.507Z,30.40
2017-10-03T06:36:43.995Z,16.80
2017-10-03T06:38:05.618Z,29.20
2017-10-03T06:39:26.172Z,30.90
2017-10-03T06:40:46.577Z,29.40
2017-10-03T06:45:59.374Z,22.30
2017-10-03T06:47:19.836Z,23.80
2017-10-03T06:48:40.314Z,24.20
2017-10-03T06:50:00.772Z,23.90
2017-10-03T06:51:21.573Z,24.10
2017-10-03T06:52:42.026Z,23.70
2017-10-03T06:54:02.974Z,23.60
2017-10-03T06:55:32.674Z,22.10
2017-10-03T06:56:53.180Z,0.00
2017-10-03T06:58:13.774Z,22.60
2017-10-03T06:59:33.941Z,26.50
2017-10-03T07:00:54.883Z,25.50
2017-10-03T07:02:15.521Z,22.40
2017-10-03T07:03:36.459Z,20.20
2017-10-03T07:04:56.930Z,20.80
2017-10-03T07:06:17.456Z,24.70
2017-10-03T07:07:37.713Z,24.00
2017-10-03T07:08:58.229Z,18.20
2017-10-03T07:10:18.689Z,27.60
2017-10-03T07:11:39.012Z,23.60
2017-10-03T07:12:59.464Z,19.70
2017-10-03T07:14:20.070Z,25.50
2017-10-03T07:15:40.528Z,21.20
2017-10-03T07:17:01.599Z,31.00
2017-10-03T07:18:22.448Z,28.00
2017-10-03T07:19:43.018Z,28.30
2017-10-03T07:21:03.457Z,23.40
2017-10-03T07:26:03.224Z,17.80
2017-10-03T07:27:23.631Z,25.60
2017-10-03T07:28:45.150Z,21.50
2017-10-03T07:30:05.551Z,22.50
2017-10-03T07:31:26.227Z,19.70
2017-10-03T07:32:46.994Z,19.60
2017-10-03T07:34:07.676Z,23.70
2017-10-03T07:35:28.380Z,22.30
2017-10-03T07:36:48.819Z,25.00
2017-10-03T07:38:09.204Z,20.80
2017-10-03T07:39:29.684Z,18.20
2017-10-03T07:40:49.968Z,21.40
2017-10-03T07:42:10.699Z,14.80
2017-10-03T07:43:31.237Z,20.60
2017-10-03T07:44:51.580Z,25.00
2017-10-03T07:46:11.811Z,19.60
2017-10-03T07:47:32.741Z,18.20
2017-10-03T07:48:53.171Z,20.20
2017-10-03T07:50:14.423Z,18.60
2017-10-03T07:51:34.757Z,21.90
2017-10-03T07:52:55.464Z,13.30
2017-10-03T07:54:15.757Z,17.90
2017-10-03T07:55:36.353Z,21.60
2017-10-03T07:56:56.860Z,14.70
2017-10-03T07:58:17.619Z,20.10
2017-10-03T07:59:39.400Z,15.00
2017-10-03T08:01:00.101Z,15.20
2017-10-03T08:02:21.473Z,18.80
2017-10-03T08:03:42.859Z,18.40
2017-10-03T08:05:03.289Z,26.50
2017-10-03T08:06:23.803Z,22.10
2017-10-03T08:07:44.985Z,17.30
2017-10-03T08:09:05.804Z,20.50
2017-10-03T08:10:27.097Z,16.80
2017-10-03T08:11:47.511Z,20.20
2017-10-03T08:13:08.946Z,18.50
2017-10-03T08:14:32.096Z,19.90
2017-10-03T08:15:53.521Z,14.90
2017-10-03T08:17:14.124Z,14.60
2017-10-03T08:18:34.629Z,21.90
2017-10-03T08:19:56.168Z,22.50
2017-10-03T08:21:16.969Z,15.70
2017-10-03T08:22:37.686Z,19.80
2017-10-03T08:23:58.153Z,15.30
2017-10-03T08:25:19.060Z,16.60
2017-10-03T08:26:39.509Z,15.80
2017-10-03T08:28:00.010Z,15.40
2017-10-03T08:29:21.764Z,19.90
2017-10-03T08:30:42.424Z,18.60
2017-10-03T08:32:02.948Z,20.50
2017-10-03T08:32:56.979Z,17.50
2017-10-03T08:34:21.486Z,17.80
2017-10-03T08:45:25.664Z,12.30
2017-10-03T08:46:46.183Z,16.70
2017-10-03T08:48:06.702Z,20.60
2017-10-03T08:49:27.271Z,17.40
2017-10-03T08:50:49.332Z,16.40
2017-10-03T08:52:09.713Z,18.00
2017-10-03T08:53:30.905Z,19.30
2017-10-03T08:54:51.671Z,18.90
2017-10-03T08:56:12.648Z,14.30
2017-10-03T08:59:01.550Z,19.30
2017-10-03T09:00:22.165Z,14.30
2017-10-03T09:01:42.675Z,14.90
2017-10-03T09:03:03.185Z,17.40
2017-10-03T09:04:23.720Z,13.40
2017-10-03T09:05:44.161Z,12.40
2017-10-03T09:07:05.089Z,17.80
2017-10-03T09:08:26.923Z,14.90
2017-10-03T09:09:51.996Z,15.70
2017-10-03T09:11:12.777Z,15.30
2017-10-03T09:12:33.831Z,12.20
2017-10-03T09:13:54.536Z,18.70
2017-10-03T09:15:15.216Z,12.80
2017-10-03T09:16:35.680Z,17.00
2017-10-03T09:17:56.379Z,13.50
2017-10-03T09:19:17.011Z,17.30
2017-10-03T09:20:37.534Z,13.50
2017-10-03T09:21:58.998Z,17.80
2017-10-03T09:23:20.787Z,15.10
2017-10-03T09:24:41.476Z,11.80
2017-10-03T09:26:02.078Z,15.50
2017-10-03T09:27:22.610Z,16.70
2017-10-03T09:28:43.370Z,8.60
2017-10-03T09:30:04.146Z,11.20
2017-10-03T09:31:25.987Z,12.80
2017-10-03T09:32:47.524Z,16.30
2017-10-03T09:34:08.138Z,14.10
2017-10-03T09:35:29.467Z,8.90
2017-10-03T09:36:50.403Z,13.30
2017-10-03T09:38:11.031Z,16.10
2017-10-03T09:39:32.019Z,13.10
2017-10-03T09:40:53.219Z,16.10
2017-10-03T09:42:13.764Z,13.90
2017-10-03T09:43:34.744Z,13.80
2017-10-03T09:44:55.420Z,14.70
2017-10-03T09:46:16.218Z,15.10
2017-10-03T09:47:36.988Z,13.20
2017-10-03T09:48:57.468Z,15.90
2017-10-03T09:50:18.985Z,18.50
2017-10-03T09:51:39.577Z,12.40
2017-10-03T09:53:00.012Z,19.10
2017-10-03T09:54:20.684Z,13.70
2017-10-03T09:55:42.033Z,15.00
2017-10-03T09:57:02.598Z,11.70
2017-10-03T09:58:23.939Z,13.80
2017-10-03T09:59:44.708Z,12.70
2017-10-03T10:01:05.618Z,9.30
2017-10-03T10:02:26.160Z,13.10
2017-10-03T10:03:46.567Z,9.30
2017-10-03T10:05:07.071Z,9.10
2017-10-03T10:06:28.155Z,29.30
2017-10-03T10:07:48.859Z,14.80
2017-10-03T10:09:09.323Z,12.90
2017-10-03T10:16:18.452Z,10.40
2017-10-03T10:17:39.096Z,11.80
2017-10-03T10:19:00.303Z,15.40
2017-10-03T10:20:23.722Z,14.00
2017-10-03T10:21:46.482Z,13.70
2017-10-03T10:23:15.814Z,10.90
2017-10-03T10:24:37.069Z,11.80
2017-10-03T10:25:58.350Z,11.30
2017-10-03T10:27:21.391Z,15.60
2017-10-03T10:28:41.862Z,17.90
2017-10-03T10:30:02.459Z,11.30
2017-10-03T10:31:23.820Z,15.80
2017-10-03T10:32:44.291Z,16.30
2017-10-03T10:34:04.931Z,12.40
2017-10-03T10:35:25.779Z,8.10
2017-10-03T10:36:46.128Z,10.80
2017-10-03T10:38:06.904Z,9.70
2017-10-03T10:39:27.350Z,8.50
2017-10-03T10:40:48.316Z,9.70
2017-10-03T10:42:08.852Z,12.20
2017-10-03T10:43:29.963Z,9.50
2017-10-03T10:44:50.540Z,11.10
2017-10-03T10:46:11.360Z,11.10
2017-10-03T10:47:33.188Z,6.90
2017-10-03T10:48:54.108Z,6.90
2017-10-03T10:50:17.936Z,9.60
2017-10-03T10:51:38.481Z,6.20
2017-10-03T10:52:59.216Z,6.30
2017-10-03T10:54:20.394Z,10.30
2017-10-03T10:55:41.831Z,7.50
2017-10-03T10:57:02.418Z,6.60
2017-10-03T10:58:23.082Z,7.50
2017-10-03T10:59:44.329Z,8.00
2017-10-03T11:01:04.979Z,10.40
2017-10-03T11:02:25.775Z,10.70
2017-10-03T11:03:46.845Z,10.70
2017-10-03T11:05:07.889Z,9.20
2017-10-03T11:06:28.685Z,12.00
2017-10-03T11:15:01.718Z,16.10
2017-10-03T11:16:22.971Z,7.50
2017-10-03T11:17:43.771Z,11.10
2017-10-03T11:19:04.956Z,12.40
2017-10-03T11:20:26.375Z,8.70
2017-10-03T11:21:47.174Z,11.10
2017-10-03T11:23:09.004Z,13.00
2017-10-03T11:24:29.664Z,10.40
2017-10-03T11:25:51.259Z,8.80
2017-10-03T11:27:13.343Z,11.20
2017-10-03T11:28:33.728Z,8.40
2017-10-03T11:29:54.622Z,13.30
2017-10-03T11:31:16.693Z,7.60
2017-10-03T11:32:37.443Z,9.10
2017-10-03T11:33:58.109Z,12.00
2017-10-03T11:35:18.789Z,7.90
2017-10-03T11:36:39.772Z,7.70
2017-10-03T11:38:00.491Z,10.00
2017-10-03T11:39:22.455Z,10.00
2017-10-03T11:40:43.005Z,7.70
2017-10-03T11:42:05.645Z,11.00
2017-10-03T11:43:26.260Z,11.40
2017-10-03T11:44:46.687Z,7.90
2017-10-03T11:46:08.784Z,10.00
2017-10-03T11:47:29.431Z,9.90
2017-10-03T11:48:50.517Z,9.90
2017-10-03T11:50:11.270Z,10.00
2017-10-03T11:51:32.344Z,8.70
2017-10-03T11:52:52.857Z,9.80
2017-10-03T11:54:13.743Z,11.00
2017-10-03T11:55:35.044Z,10.30
2017-10-03T11:56:55.964Z,11.40
2017-10-03T11:58:17.234Z,10.30
2017-10-03T11:59:38.404Z,8.20
2017-10-03T12:00:59.198Z,11.90
2017-10-03T12:02:19.916Z,9.10
2017-10-03T12:03:41.031Z,7.40
2017-10-03T12:05:01.861Z,8.00
2017-10-03T12:06:24.734Z,10.40
2017-10-03T12:07:45.657Z,10.80
2017-10-03T12:09:07.217Z,8.20
2017-10-03T12:10:27.807Z,10.90
2017-10-03T12:11:48.516Z,5.10
2017-10-03T12:13:09.723Z,8.90
2017-10-03T12:14:31.015Z,10.20
2017-10-03T12:15:52.239Z,9.70
2017-10-03T12:17:12.931Z,10.60
2017-10-03T12:18:34.060Z,9.90
2017-10-03T12:19:54.734Z,14.20
2017-10-03T12:21:15.302Z,13.40
2017-10-03T12:22:37.025Z,10.30
2017-10-03T12:23:57.737Z,13.20
2017-10-03T12:25:18.580Z,13.80
2017-10-03T12:26:39.198Z,8.90
2017-10-03T12:27:59.817Z,10.10
2017-10-03T12:29:20.601Z,14.70
2017-10-03T12:30:41.857Z,10.40
2017-10-03T12:32:02.508Z,19.10
2017-10-03T12:33:23.261Z,9.80
2017-10-03T12:34:43.887Z,8.20
2017-10-03T12:36:04.649Z,11.70
2017-10-03T12:37:25.533Z,11.20
2017-10-03T12:38:46.238Z,8.40
2017-10-03T12:40:06.907Z,8.30
2017-10-03T12:41:27.696Z,7.20
2017-10-03T12:42:48.886Z,11.30
2017-10-03T12:44:09.422Z,9.00
2017-10-03T12:45:30.905Z,13.20
2017-10-03T12:46:51.604Z,7.40
2017-10-03T12:48:12.343Z,9.90
2017-10-03T12:49:33.497Z,7.70
2017-10-03T12:50:53.948Z,7.50
2017-10-03T12:52:15.448Z,6.80
2017-10-03T12:53:35.998Z,9.00
2017-10-03T12:54:57.257Z,10.40
2017-10-03T12:56:18.823Z,6.00
2017-10-03T12:57:40.979Z,8.00
2017-10-03T12:59:01.639Z,9.70
2017-10-03T13:00:22.250Z,6.90
2017-10-03T13:01:42.885Z,5.70
2017-10-03T13:03:04.677Z,8.60
2017-10-03T13:04:25.447Z,7.70
2017-10-03T13:05:46.085Z,6.80
2017-10-03T13:07:06.939Z,9.10
2017-10-03T13:08:27.697Z,9.70
2017-10-03T13:09:48.407Z,7.90
2017-10-03T13:11:08.975Z,9.80
2017-10-03T13:12:30.368Z,9.60
2017-10-03T13:13:51.203Z,7.20
2017-10-03T13:15:12.338Z,10.10
2017-10-03T13:16:34.173Z,11.60
2017-10-03T13:17:56.788Z,5.80
2017-10-03T13:19:17.771Z,11.80
2017-10-03T13:25:58.391Z,9.60
2017-10-03T13:27:19.086Z,15.40
2017-10-03T13:28:40.249Z,7.90
2017-10-03T13:30:01.634Z,9.60
2017-10-03T13:31:22.187Z,9.40
2017-10-03T13:32:43.394Z,8.80
2017-10-03T13:34:04.028Z,4.60
2017-10-03T13:35:24.608Z,5.90
2017-10-03T13:36:47.221Z,7.90
2017-10-03T13:38:07.968Z,6.80
2017-10-03T13:39:29.904Z,7.90
2017-10-03T13:40:51.342Z,5.20
2017-10-03T13:42:12.608Z,6.10
2017-10-03T13:43:33.117Z,6.20
2017-10-03T13:44:53.781Z,7.40
2017-10-03T13:46:14.558Z,6.90
2017-10-03T13:47:35.210Z,10.20
2017-10-03T13:48:56.340Z,10.00
2017-10-03T13:50:17.580Z,7.10
2017-10-03T13:51:38.275Z,4.00
2017-10-03T13:52:59.687Z,7.20
2017-10-03T13:54:20.437Z,9.30
2017-10-03T13:55:42.166Z,6.70
2017-10-03T13:57:02.714Z,9.70
2017-10-03T13:58:24.518Z,8.60
2017-10-03T13:59:45.888Z,10.20
2017-10-03T14:01:07.524Z,7.10
2017-10-03T14:02:30.015Z,5.20
2017-10-03T14:03:51.802Z,9.30
2017-10-03T14:05:12.471Z,8.30
2017-10-03T14:06:33.457Z,12.90
2017-10-03T14:07:54.300Z,7.40
2017-10-03T14:09:14.935Z,8.20
2017-10-03T14:10:36.254Z,10.40
2017-10-03T14:11:57.049Z,8.30
2017-10-03T14:13:17.642Z,5.30
2017-10-03T14:14:38.296Z,6.30
2017-10-03T14:16:00.355Z,7.90
2017-10-03T14:17:21.965Z,8.80
2017-10-03T14:18:42.702Z,6.40
2017-10-03T14:20:03.720Z,7.60
2017-10-03T14:21:25.616Z,7.30
2017-10-03T14:22:47.809Z,8.80
2017-10-03T14:24:08.222Z,5.70
2017-10-03T14:25:29.113Z,9.00
2017-10-03T14:26:50.071Z,7.40
2017-10-03T14:28:10.742Z,6.80
2017-10-03T14:29:31.209Z,7.40
2017-10-03T14:30:51.741Z,8.80
2017-10-03T14:32:13.125Z,9.60
2017-10-03T14:33:33.500Z,8.30
2017-10-03T14:34:53.841Z,6.60
2017-10-03T14:36:15.067Z,7.30
2017-10-03T14:37:35.750Z,8.70
2017-10-03T14:38:56.937Z,7.10
2017-10-03T14:40:18.334Z,4.60
2017-10-03T14:41:39.048Z,5.30
2017-10-03T14:42:59.626Z,7.80
2017-10-03T14:44:20.359Z,10.50
2017-10-03T14:45:41.022Z,6.10
2017-10-03T14:47:02.052Z,8.80
2017-10-03T14:48:22.753Z,7.50
2017-10-03T14:49:44.421Z,7.00
2017-10-03T14:51:04.995Z,8.20
2017-10-03T14:52:26.055Z,9.30
2017-10-03T14:53:46.676Z,8.00
2017-10-03T14:55:07.565Z,4.20
2017-10-03T14:56:28.269Z,7.00
2017-10-03T14:57:50.410Z,8.70
2017-10-03T14:59:11.904Z,8.60
2017-10-03T15:00:33.312Z,10.60
2017-10-03T15:01:54.475Z,8.00
2017-10-03T15:03:15.296Z,12.00
2017-10-03T15:04:35.937Z,9.90
2017-10-03T15:05:56.482Z,7.90
2017-10-03T15:07:17.376Z,8.70
2017-10-03T15:08:38.109Z,8.40
2017-10-03T15:09:59.384Z,10.40
2017-10-03T15:11:20.204Z,8.20
2017-10-03T15:12:40.784Z,10.70
2017-10-03T15:14:01.459Z,8.30
2017-10-03T15:15:22.107Z,8.70
2017-10-03T15:16:42.898Z,10.70
2017-10-03T15:18:03.744Z,13.20
2017-10-03T15:19:24.511Z,9.10
2017-10-03T15:20:46.505Z,11.20
2017-10-03T15:22:07.668Z,9.60
2017-10-03T15:23:28.498Z,10.20
2017-10-03T15:24:50.523Z,11.00
2017-10-03T15:26:11.424Z,11.50
2017-10-03T15:27:32.104Z,8.80
2017-10-03T15:28:52.626Z,16.30
2017-10-03T15:30:13.459Z,7.50
2017-10-03T15:31:34.559Z,8.70
2017-10-03T15:32:55.247Z,10.00
2017-10-03T15:34:16.489Z,8.80
2017-10-03T15:35:38.688Z,9.90
2017-10-03T15:36:59.723Z,9.00
2017-10-03T15:38:20.649Z,8.30
2017-10-03T15:39:42.262Z,10.40
2017-10-03T15:41:03.154Z,11.00
2017-10-03T15:42:23.756Z,9.00
2017-10-03T15:43:44.835Z,11.40
2017-10-03T15:45:05.304Z,16.80
2017-10-03T15:46:26.297Z,13.80
2017-10-03T15:47:46.794Z,9.00
2017-10-03T15:49:07.297Z,10.60
2017-10-03T15:50:28.517Z,9.80
2017-10-03T15:51:50.361Z,15.60
2017-10-03T15:53:11.099Z,10.80
2017-10-03T15:54:32.937Z,13.80
2017-10-03T15:55:54.888Z,9.50
2017-10-03T15:57:15.726Z,8.20
2017-10-03T15:58:36.206Z,14.00
2017-10-03T15:59:57.533Z,7.40
2017-10-03T16:01:21.477Z,15.30
2017-10-03T16:02:42.711Z,9.90
2017-10-03T16:04:04.044Z,8.60
2017-10-03T16:05:24.579Z,16.20
2017-10-03T16:06:45.988Z,14.30
2017-10-03T16:08:06.949Z,13.40
2017-10-03T16:09:28.365Z,12.30
2017-10-03T16:10:48.852Z,9.40
2017-10-03T16:12:10.658Z,11.50
2017-10-03T16:13:32.198Z,10.40
2017-10-03T16:14:53.025Z,7.20
2017-10-03T16:16:14.946Z,13.00
2017-10-03T16:17:35.565Z,12.40
2017-10-03T16:18:56.667Z,13.40
2017-10-03T16:20:18.233Z,12.30
2017-10-03T16:21:38.743Z,13.90
2017-10-03T16:22:59.332Z,9.30
2017-10-03T16:24:19.988Z,14.60
2017-10-03T16:25:40.546Z,9.60
2017-10-03T16:27:02.109Z,10.20
2017-10-03T16:28:22.678Z,9.80
2017-10-03T16:29:43.807Z,18.80
2017-10-03T16:31:05.283Z,15.60
2017-10-03T16:32:25.876Z,18.60
2017-10-03T16:33:46.347Z,15.40
2017-10-03T16:35:07.257Z,11.90
2017-10-03T16:36:28.206Z,9.80
2017-10-03T16:37:50.437Z,22.60
2017-10-03T16:39:11.056Z,15.40
2017-10-03T16:40:31.645Z,13.90
2017-10-03T16:41:52.949Z,14.70
2017-10-03T16:43:13.554Z,19.00
2017-10-03T16:44:34.804Z,13.10
2017-10-03T16:45:55.531Z,17.80
2017-10-03T16:47:16.817Z,14.50
2017-10-03T16:48:37.164Z,7.00
2017-10-03T16:49:57.656Z,11.90
2017-10-03T16:51:18.651Z,13.90
2017-10-03T16:52:39.161Z,9.90
2017-10-03T16:54:00.329Z,8.80
2017-10-03T16:55:21.394Z,7.70
2017-10-03T16:56:42.775Z,11.90
2017-10-03T16:58:03.380Z,12.60
2017-10-03T16:59:26.937Z,12.60
2017-10-03T17:00:50.355Z,10.50
2017-10-03T17:02:11.214Z,11.60
2017-10-03T17:03:32.910Z,12.80
2017-10-03T17:04:53.385Z,11.40
2017-10-03T17:06:14.032Z,13.30
2017-10-03T17:07:35.576Z,11.60
2017-10-03T17:08:57.052Z,20.30
2017-10-03T17:10:17.648Z,10.20
2017-10-03T17:11:38.401Z,19.30
2017-10-03T17:13:00.803Z,12.40
2017-10-03T17:14:22.035Z,15.00
2017-10-03T17:15:42.628Z,12.20
2017-10-03T17:17:03.553Z,13.30
2017-10-03T17:18:24.284Z,13.00
2017-10-03T17:19:46.509Z,16.40
2017-10-03T17:21:07.499Z,12.10
2017-10-03T17:22:30.022Z,16.00
2017-10-03T17:23:50.884Z,10.70
2017-10-03T17:25:11.345Z,17.60
2017-10-03T17:26:32.361Z,15.30
2017-10-03T17:27:52.845Z,14.20
2017-10-03T17:29:13.521Z,17.10
2017-10-03T17:30:34.066Z,13.40
2017-10-03T17:31:54.643Z,10.40
2017-10-03T17:34:42.485Z,14.10
2017-10-03T17:36:03.165Z,20.00
2017-10-03T17:37:25.201Z,15.90
2017-10-03T17:38:47.585Z,13.60
2017-10-03T17:40:09.171Z,13.40
2017-10-03T17:41:30.817Z,17.70
2017-10-03T17:42:51.416Z,15.10
2017-10-03T17:44:12.269Z,15.40
2017-10-03T17:45:33.984Z,22.20
2017-10-03T17:46:55.334Z,16.60
2017-10-03T17:48:16.089Z,18.40
2017-10-03T17:49:37.620Z,15.30
2017-10-03T17:50:59.458Z,12.30
2017-10-03T17:52:20.105Z,15.60
2017-10-03T17:53:40.940Z,10.60
2017-10-03T17:55:02.549Z,14.60
2017-10-03T17:56:23.250Z,15.60
2017-10-03T17:57:46.168Z,19.00
2017-10-03T17:59:08.097Z,13.50
2017-10-03T18:00:30.850Z,12.90
2017-10-03T18:01:52.531Z,9.50
2017-10-03T18:03:13.310Z,14.50
2017-10-03T18:04:35.860Z,15.90
2017-10-03T18:05:56.438Z,13.20